Home   Weather   USA   Greenville   Past weeks
Flag for USA

Past Weather in Greenville, North Carolina, USA — Yesterday and Last 2 Weeks

Currently: 66 °F. Clear. (Weather station: Greenville Airport, USA). See more current weather

Past Weather in Greenville — Graph

°F

Greenville Temperature Yesterday

Maximum temperature yesterday: 86 °F (at 2:05 pm)
Minimum temperature yesterday: 59 °F (at 5:25 am)
Average temperature yesterday: 74 °F

High & Low Weather Summary for the Past Weeks

 TemperatureHumidityPressure
High91 °F (May 8, 3:25 pm)100% (May 8, 4:25 am)30.11 "Hg (May 8, 4:25 am)
Low52 °F (May 11, 6:25 am)24% (May 12, 4:25 pm)29.56 "Hg (May 10, 4:25 pm)
Average69 °F84%29.87 "Hg
* Reported May 8 4:25 am — May 23 4:05 am, Greenville. Weather by CustomWeather, © 2024

Note: Actual official high and low records may vary slightly from our data, if they occured in-between our weather recording intervals... More about our weather records

Greenville Weather History for the Previous 24 Hours

Scroll right to see more
 ConditionsComfort  
Time TempWeatherWind HumidityBarometerVisibility
4:05 am
Thu, May 23
68 °FClear.6 mph100%30.00 "Hg10 mi
3:25 am68 °FClear.7 mph100%30.00 "Hg10 mi
3:05 am68 °FClear.8 mph100%30.00 "Hg10 mi
2:45 am68 °FClear.7 mph100%30.00 "Hg10 mi
2:25 am68 °FClear.7 mph100%30.00 "Hg10 mi
2:05 am70 °FClear.9 mph100%30.00 "Hg10 mi
1:25 am70 °FClear.9 mph100%30.01 "Hg10 mi
1:05 am70 °FClear.9 mph100%30.02 "Hg10 mi
12:45 am70 °FClear.8 mph100%30.02 "Hg10 mi
12:25 am70 °FClear.9 mph100%30.00 "Hg10 mi
12:05 am70 °FClear.9 mph100%30.01 "Hg10 mi
11:45 pm
Wed, May 22
72 °FClear.9 mph94%30.02 "Hg10 mi
11:25 pm72 °FClear.9 mph94%30.02 "Hg10 mi
11:05 pm72 °FClear.9 mph94%30.00 "Hg10 mi
10:05 pm73 °FClear.8 mph83%30.00 "Hg10 mi
9:25 pm77 °FClear.12 mph69%30.00 "Hg10 mi
9:05 pm77 °FClear.10 mph74%30.00 "Hg10 mi
8:25 pm79 °FClear.10 mph70%29.98 "Hg10 mi
8:05 pm81 °FSunny.8 mph66%29.97 "Hg10 mi
7:45 pm81 °FSunny.9 mph58%29.98 "Hg10 mi
7:25 pm81 °FSunny.No wind51%29.97 "Hg10 mi
7:05 pm81 °FSunny.5 mph51%29.95 "Hg10 mi
6:05 pm86 °FSunny.6 mph40%29.96 "Hg10 mi
5:45 pm86 °FSunny.10 mph40%29.96 "Hg7 mi
5:25 pm86 °FScattered clouds.10 mph43%29.96 "Hg10 mi
5:05 pm86 °FScattered clouds.9 mph43%29.97 "Hg10 mi
4:25 pm86 °FScattered clouds.6 mph43%29.97 "Hg10 mi
4:05 pm86 °FSunny.8 mph43%29.98 "Hg10 mi
3:25 pm86 °FScattered clouds.6 mph43%30.00 "Hg7 mi
3:05 pm84 °FScattered clouds.5 mph45%30.00 "Hg10 mi
2:45 pm86 °FSunny.7 mph43%30.01 "Hg7 mi
2:25 pm86 °FSunny.5 mph43%30.01 "Hg10 mi
2:05 pm86 °FSunny.6 mph43%30.02 "Hg10 mi
1:05 pm82 °FSunny.3 mph48%30.03 "Hg10 mi
12:25 pm82 °FSunny.6 mph51%30.04 "Hg10 mi
12:05 pm81 °FSunny.6 mph54%30.05 "Hg10 mi
11:25 am81 °FSunny.No wind54%30.06 "Hg10 mi
11:05 am79 °FSunny.No wind58%30.06 "Hg10 mi
10:25 am77 °FSunny.3 mph61%30.07 "Hg10 mi
10:05 am77 °FSunny.7 mph61%30.07 "Hg10 mi
9:05 am72 °FSunny.3 mph73%30.08 "Hg10 mi
8:25 am70 °FSunny.3 mph88%30.08 "Hg10 mi
8:05 am68 °FSunny.5 mph100%30.09 "Hg10 mi
7:25 am64 °FSunny.No wind100%30.07 "Hg10 mi
7:05 am63 °FSunny.No wind100%30.06 "Hg10 mi
6:45 am61 °FSunny.No wind100%30.05 "Hg10 mi
6:25 am61 °FFog.No wind94%30.05 "Hg4 mi
6:05 am61 °FSunny.No wind94%30.05 "Hg10 mi
5:45 am59 °FFog.No wind100%30.04 "Hg1 mi
5:25 am59 °FClear.No wind100%30.04 "Hg10 mi
5:05 am61 °FFog.No wind100%30.03 "Hg4 mi
Weather by CustomWeather, © 2024

See weather overview